Time;durP1;ratioP1;P1;durP2;ratioP2;P2;SDS_P1;SDS_P2;PMS_P1;PMS_P2;Temp;Humidity;BMP_temperature;BMP_pressure;BME280_temperature;BME280_humidity;BME280_pressure;Samples;Min_cycle;Max_cycle;Signal;HPM_P1;HPM_P2
2021/07/11 00:01:25;;;;;;;3.03;1.83;;;17.10;99.90;;;;;;5027448;28;20910;-72
2021/07/11 00:03:51;;;;;;;2.43;1.87;;;17.00;99.90;;;;;;5028045;28;20480;-72
2021/07/11 00:06:18;;;;;;;2.43;2.13;;;16.90;99.90;;;;;;5028463;28;20460;-72
2021/07/11 00:08:45;;;;;;;3.10;2.27;;;16.90;99.90;;;;;;5029469;28;20464;-72
2021/07/11 00:11:13;;;;;;;3.07;2.20;;;16.80;99.90;;;;;;5037684;28;20884;-72
2021/07/11 00:13:40;;;;;;;1.77;1.67;;;16.70;99.90;;;;;;5043691;28;20476;-72
2021/07/11 00:16:06;;;;;;;4.70;2.67;;;16.70;99.90;;;;;;5041325;28;20453;-72
2021/07/11 00:18:33;;;;;;;3.90;2.80;;;16.60;99.90;;;;;;5042294;28;20498;-71
2021/07/11 00:21:00;;;;;;;2.40;2.20;;;16.60;99.90;;;;;;5042973;28;20461;-71
2021/07/11 00:23:27;;;;;;;3.40;2.00;;;16.60;99.90;;;;;;5051859;28;20475;-71
2021/07/11 00:25:53;;;;;;;2.37;2.10;;;16.50;99.90;;;;;;5052626;28;20520;-72
2021/07/11 00:28:21;;;;;;;2.63;2.23;;;16.50;99.90;;;;;;5048827;28;20493;-72
2021/07/11 00:30:48;;;;;;;2.70;2.50;;;16.50;99.90;;;;;;5052447;28;20895;-72
2021/07/11 00:33:15;;;;;;;2.60;2.40;;;16.50;99.90;;;;;;5052319;28;20470;-72
2021/07/11 00:35:42;;;;;;;2.40;2.20;;;16.50;99.90;;;;;;5052294;28;20462;-72
2021/07/11 00:38:09;;;;;;;2.30;2.10;;;16.40;99.90;;;;;;5052285;28;20471;-71
2021/07/11 00:40:41;;;;;;;2.50;2.03;;;16.40;99.90;;;;;;5051648;28;20922;-72
2021/07/11 00:43:09;;;;;;;2.37;2.17;;;16.40;99.90;;;;;;5050827;28;20487;-72
2021/07/11 00:45:37;;;;;;;2.70;2.50;;;16.30;99.90;;;;;;5051636;28;20463;-72
2021/07/11 00:48:05;;;;;;;2.10;1.90;;;16.30;99.90;;;;;;5051822;28;20540;-71
2021/07/11 00:50:32;;;;;;;2.93;2.23;;;16.30;99.90;;;;;;5051572;28;20463;-72
2021/07/11 00:52:59;;;;;;;3.20;2.17;;;16.30;99.90;;;;;;5052048;28;20467;-71
2021/07/11 00:55:26;;;;;;;2.67;2.07;;;16.20;99.90;;;;;;5051776;28;21005;-71
2021/07/11 00:57:53;;;;;;;3.47;1.80;;;16.20;99.90;;;;;;5051788;28;20463;-71
2021/07/11 01:00:20;;;;;;;4.57;2.47;;;16.20;99.90;;;;;;5051018;28;20478;-71
2021/07/11 01:02:54;;;;;;;2.40;2.20;;;16.20;99.90;;;;;;5051387;28;20538;-71
2021/07/11 01:05:23;;;;;;;2.57;2.37;;;16.10;99.90;;;;;;5051422;28;20989;-71
2021/07/11 01:07:54;;;;;;;3.07;2.43;;;16.10;99.90;;;;;;5051513;28;20467;-71
2021/07/11 01:10:27;;;;;;;5.67;2.43;;;16.20;99.90;;;;;;5051100;28;20516;-72
2021/07/11 01:12:56;;;;;;;2.33;1.77;;;16.10;99.90;;;;;;5051644;28;20463;-71
2021/07/11 01:15:23;;;;;;;2.60;2.37;;;16.10;99.90;;;;;;5050913;28;20479;-72
2021/07/11 01:17:53;;;;;;;2.20;1.93;;;16.10;99.90;;;;;;5051618;28;20466;-71
2021/07/11 01:20:33;;;;;;;2.37;2.17;;;16.00;99.90;;;;;;5050607;28;20471;-71
2021/07/11 01:23:00;;;;;;;3.00;2.70;;;16.00;99.90;;;;;;5050778;28;20491;-72
2021/07/11 01:25:36;;;;;;;1.90;1.80;;;16.00;99.90;;;;;;5050664;28;20517;-71
2021/07/11 01:28:06;;;;;;;3.27;2.00;;;16.00;99.90;;;;;;5051597;28;20474;-72
2021/07/11 01:30:34;;;;;;;3.70;2.20;;;16.00;99.90;;;;;;5050694;28;20949;-71
2021/07/11 01:33:02;;;;;;;2.70;2.50;;;16.00;99.90;;;;;;5050941;28;20459;-71
2021/07/11 01:35:29;;;;;;;2.90;1.97;;;15.90;99.90;;;;;;5051119;28;20985;-72
2021/07/11 01:37:57;;;;;;;2.60;2.40;;;15.80;99.90;;;;;;5050973;28;20500;-71
2021/07/11 01:40:25;;;;;;;2.33;2.13;;;15.90;99.90;;;;;;5050390;28;20467;-72
2021/07/11 01:42:54;;;;;;;3.67;2.30;;;15.90;99.90;;;;;;5050688;28;20479;-72
2021/07/11 01:45:21;;;;;;;2.67;2.47;;;15.90;99.90;;;;;;5050412;28;20476;-72
2021/07/11 01:47:49;;;;;;;3.63;2.30;;;15.90;99.90;;;;;;5050973;28;20464;-72
2021/07/11 01:50:16;;;;;;;2.30;2.10;;;15.90;99.90;;;;;;5049760;28;20498;-71
2021/07/11 01:52:43;;;;;;;3.60;2.57;;;15.80;99.90;;;;;;5050927;28;20509;-72
2021/07/11 01:55:12;;;;;;;2.63;2.43;;;15.80;99.90;;;;;;5050374;28;20799;-72
2021/07/11 01:57:39;;;;;;;3.00;2.30;;;15.80;99.90;;;;;;5050864;28;20463;-72
2021/07/11 02:00:11;;;;;;;2.90;2.20;;;15.80;99.90;;;;;;5049792;28;20463;-72
2021/07/11 02:02:38;;;;;;;2.90;2.60;;;15.80;99.90;;;;;;5050683;28;20830;-72
2021/07/11 02:05:08;;;;;;;2.93;2.70;;;15.80;99.90;;;;;;5050512;28;20487;-71
2021/07/11 02:07:35;;;;;;;2.90;2.27;;;15.80;99.90;;;;;;5050421;28;20459;-72
2021/07/11 02:10:04;;;;;;;2.43;2.23;;;15.80;99.90;;;;;;5050246;28;20459;-72
2021/07/11 02:12:32;;;;;;;2.40;2.20;;;15.90;99.90;;;;;;5050206;28;20463;-72
2021/07/11 02:15:02;;;;;;;2.43;2.23;;;15.90;99.90;;;;;;5050734;28;20553;-73
2021/07/11 02:17:31;;;;;;;2.37;2.07;;;15.90;99.90;;;;;;5050284;28;20467;-72
2021/07/11 02:20:01;;;;;;;2.50;2.27;;;15.80;99.90;;;;;;5049829;28;20467;-72
2021/07/11 02:22:28;;;;;;;2.13;2.00;;;15.80;99.90;;;;;;5050016;28;20911;-72
2021/07/11 02:24:58;;;;;;;2.30;2.10;;;15.80;99.90;;;;;;5050021;28;20659;-72
2021/07/11 02:27:25;;;;;;;2.93;2.43;;;15.80;99.90;;;;;;5050243;28;20464;-72
2021/07/11 02:29:55;;;;;;;2.97;2.43;;;15.80;99.90;;;;;;5049379;28;20724;-72
2021/07/11 02:32:25;;;;;;;2.40;2.20;;;15.80;99.90;;;;;;5049944;28;20464;-73
2021/07/11 02:34:53;;;;;;;3.27;2.90;;;15.90;99.90;;;;;;5048975;28;21002;-72
2021/07/11 02:37:23;;;;;;;2.43;2.10;;;15.90;99.90;;;;;;5049846;28;20954;-72
2021/07/11 02:39:52;;;;;;;2.67;2.43;;;15.80;99.90;;;;;;5049732;28;20859;-72
2021/07/11 02:42:22;;;;;;;3.17;2.53;;;15.80;99.90;;;;;;5049395;28;20483;-72
2021/07/11 02:44:53;;;;;;;3.03;2.40;;;15.80;99.90;;;;;;5050034;28;20851;-72
2021/07/11 02:47:24;;;;;;;2.10;1.93;;;15.80;99.90;;;;;;5049267;28;20471;-73
2021/07/11 02:49:56;;;;;;;2.83;2.10;;;15.80;99.90;;;;;;5049514;28;20463;-72
2021/07/11 02:52:25;;;;;;;2.47;2.27;;;15.80;99.90;;;;;;5049394;28;20475;-72
2021/07/11 02:54:57;;;;;;;3.17;2.50;;;15.80;99.90;;;;;;5049798;28;20479;-72
2021/07/11 02:57:27;;;;;;;2.60;2.40;;;15.80;99.90;;;;;;5050024;28;21020;-72
2021/07/11 02:59:55;;;;;;;2.47;2.27;;;15.70;99.90;;;;;;5049199;28;20499;-72
2021/07/11 03:02:24;;;;;;;2.30;2.10;;;15.70;99.90;;;;;;5049729;28;20483;-72
2021/07/11 03:04:52;;;;;;;2.47;2.27;;;15.70;99.90;;;;;;5049662;28;20486;-72
2021/07/11 03:07:20;;;;;;;3.50;2.57;;;15.60;99.90;;;;;;5049489;28;20467;-72
2021/07/11 03:09:47;;;;;;;2.73;2.20;;;15.60;99.90;;;;;;5049141;28;20842;-72
2021/07/11 03:12:16;;;;;;;2.87;2.60;;;15.70;99.90;;;;;;5049593;28;20459;-72
2021/07/11 03:14:47;;;;;;;2.77;2.50;;;15.70;99.90;;;;;;5049622;28;20506;-72
2021/07/11 03:17:15;;;;;;;2.43;2.23;;;15.70;99.90;;;;;;5049414;28;20543;-72
2021/07/11 03:19:44;;;;;;;3.17;2.47;;;15.70;99.90;;;;;;5049078;28;20467;-72
2021/07/11 03:22:11;;;;;;;2.77;2.50;;;15.70;99.90;;;;;;5049020;28;20580;-72
2021/07/11 03:24:40;;;;;;;2.97;2.67;;;15.70;99.90;;;;;;5049466;28;20491;-72
2021/07/11 03:27:07;;;;;;;4.33;2.43;;;15.70;99.90;;;;;;5049094;28;20459;-72
2021/07/11 03:29:39;;;;;;;2.57;2.37;;;15.60;99.90;;;;;;5048922;28;20478;-72
2021/07/11 03:32:09;;;;;;;2.63;2.10;;;15.70;99.90;;;;;;5049520;28;20737;-72
2021/07/11 03:34:36;;;;;;;3.80;2.50;;;15.60;99.90;;;;;;5049258;28;21106;-73
2021/07/11 03:37:08;;;;;;;2.80;2.10;;;15.70;99.90;;;;;;5049256;28;20464;-72
2021/07/11 03:39:38;;;;;;;3.63;2.50;;;15.60;99.90;;;;;;5048667;28;20934;-73
2021/07/11 03:42:08;;;;;;;2.40;2.20;;;15.70;99.90;;;;;;5049221;28;20462;-73
2021/07/11 03:44:36;;;;;;;3.83;2.70;;;15.60;99.90;;;;;;5048870;28;20909;-73
2021/07/11 03:47:07;;;;;;;3.63;2.40;;;15.60;99.90;;;;;;5049205;28;21057;-73
2021/07/11 03:49:33;;;;;;;2.93;2.30;;;15.60;99.90;;;;;;5048777;28;20896;-72
2021/07/11 03:52:05;;;;;;;2.60;2.40;;;15.60;99.90;;;;;;5049208;28;20455;-72
2021/07/11 03:54:35;;;;;;;2.90;2.60;;;15.50;99.90;;;;;;5049061;28;20497;-73
2021/07/11 03:57:02;;;;;;;2.87;2.63;;;15.60;99.90;;;;;;5049052;28;20467;-72
2021/07/11 03:59:31;;;;;;;2.83;2.63;;;15.60;99.90;;;;;;5048437;28;20459;-72
2021/07/11 04:01:58;;;;;;;2.60;2.40;;;15.50;99.90;;;;;;5049272;28;20467;-73
2021/07/11 04:04:28;;;;;;;3.10;2.80;;;15.60;99.90;;;;;;5048682;28;20479;-73
2021/07/11 04:06:55;;;;;;;2.63;2.43;;;15.50;99.90;;;;;;5049087;28;20463;-73
2021/07/11 04:09:24;;;;;;;2.77;2.57;;;15.60;99.90;;;;;;5048021;28;20471;-73
2021/07/11 04:11:50;;;;;;;2.90;2.70;;;15.60;99.90;;;;;;5048907;28;20459;-73
2021/07/11 04:14:18;;;;;;;3.43;2.40;;;15.70;99.90;;;;;;5048606;28;20483;-73
2021/07/11 04:16:49;;;;;;;4.00;3.00;;;15.70;99.90;;;;;;5048746;28;20467;-73
2021/07/11 04:19:23;;;;;;;3.03;2.70;;;15.70;99.90;;;;;;5048299;28;20980;-73
2021/07/11 04:21:50;;;;;;;3.30;2.73;;;15.70;99.90;;;;;;5048734;28;20462;-73
2021/07/11 04:24:18;;;;;;;2.47;2.27;;;15.70;99.90;;;;;;5048503;28;20582;-73
2021/07/11 04:26:45;;;;;;;3.10;2.60;;;15.70;99.90;;;;;;5048243;28;20867;-73
2021/07/11 04:29:12;;;;;;;3.90;2.30;;;15.60;99.90;;;;;;5048150;28;20973;-73
2021/07/11 04:31:39;;;;;;;2.77;2.50;;;15.70;99.90;;;;;;5048643;28;20467;-73
2021/07/11 04:34:20;;;;;;;2.73;2.33;;;15.70;99.90;;;;;;5048583;28;20479;-73
2021/07/11 04:36:47;;;;;;;2.77;2.57;;;15.60;99.90;;;;;;5048681;28;20459;-73
2021/07/11 04:39:13;;;;;;;4.10;2.47;;;15.60;99.90;;;;;;5048081;28;20459;-73
2021/07/11 04:41:42;;;;;;;3.33;2.90;;;15.70;99.90;;;;;;5048591;28;20463;-73
2021/07/11 04:44:09;;;;;;;2.47;2.27;;;15.60;99.90;;;;;;5048301;28;20502;-73
2021/07/11 04:46:35;;;;;;;2.60;2.40;;;15.60;99.90;;;;;;5048431;28;21004;-73
2021/07/11 04:49:02;;;;;;;2.43;2.23;;;15.60;99.90;;;;;;5048692;28;20467;-73
2021/07/11 04:51:31;;;;;;;3.00;2.40;;;15.70;99.90;;;;;;5047901;28;20470;-73
2021/07/11 04:53:58;;;;;;;2.73;2.40;;;15.70;99.90;;;;;;5048525;28;21107;-73
2021/07/11 04:56:24;;;;;;;3.27;2.67;;;15.70;99.90;;;;;;5048184;28;20472;-73
2021/07/11 04:58:51;;;;;;;3.30;2.53;;;15.70;99.90;;;;;;5052483;28;20520;-72
2021/07/11 05:01:18;;;;;;;2.80;2.37;;;15.80;99.90;;;;;;5051522;28;20965;-73
2021/07/11 05:03:45;;;;;;;2.90;2.60;;;15.80;99.90;;;;;;5051689;28;20498;-73
2021/07/11 05:06:11;;;;;;;3.27;2.43;;;15.80;99.90;;;;;;5052462;28;20955;-72
2021/07/11 05:08:39;;;;;;;2.47;2.23;;;15.80;99.90;;;;;;5051926;28;20467;-73
2021/07/11 05:11:06;;;;;;;2.80;2.60;;;15.90;99.90;;;;;;5051558;28;20463;-73
2021/07/11 05:13:33;;;;;;;2.70;2.50;;;15.90;99.90;;;;;;5051586;28;20483;-73
2021/07/11 05:15:59;;;;;;;3.23;2.50;;;15.90;99.90;;;;;;5052176;28;20455;-73
2021/07/11 05:18:26;;;;;;;2.37;2.17;;;15.90;99.90;;;;;;5051770;28;20830;-73
2021/07/11 05:20:53;;;;;;;3.40;2.50;;;15.90;99.90;;;;;;5051117;28;20977;-73
2021/07/11 05:23:20;;;;;;;6.17;2.50;;;16.00;99.90;;;;;;5051623;28;20491;-73
2021/07/11 05:25:48;;;;;;;2.70;2.50;;;16.00;99.90;;;;;;5051552;28;20464;-73
2021/07/11 05:28:17;;;;;;;3.50;2.40;;;16.00;99.90;;;;;;5051684;28;20544;-73
2021/07/11 05:30:44;;;;;;;3.10;2.80;;;16.00;99.90;;;;;;5051097;28;20521;-73
2021/07/11 05:33:11;;;;;;;3.23;2.43;;;16.00;99.90;;;;;;5139036;22;20498;-67
2021/07/11 05:35:37;;;;;;;4.30;2.57;;;16.10;99.90;;;;;;5071111;28;20797;-66
2021/07/11 05:38:04;;;;;;;3.10;2.53;;;16.10;99.90;;;;;;5071157;28;20504;-67
2021/07/11 05:40:31;;;;;;;3.13;2.40;;;16.20;99.90;;;;;;5070467;28;20455;-67
2021/07/11 05:42:59;;;;;;;4.60;3.00;;;16.20;99.90;;;;;;5070955;28;20493;-67
2021/07/11 05:45:26;;;;;;;3.33;2.23;;;16.30;99.90;;;;;;5071131;28;20489;-66
2021/07/11 05:47:53;;;;;;;3.53;2.60;;;16.20;99.90;;;;;;5071031;28;20469;-67
2021/07/11 05:50:20;;;;;;;2.77;2.53;;;16.20;99.90;;;;;;5070370;28;20458;-67
2021/07/11 05:52:46;;;;;;;2.73;2.53;;;16.30;99.90;;;;;;5070790;28;20520;-67
2021/07/11 05:55:13;;;;;;;2.30;2.03;;;16.30;99.90;;;;;;5070656;28;20830;-66
2021/07/11 05:57:40;;;;;;;2.80;2.50;;;16.40;99.90;;;;;;5070841;28;20462;-66
2021/07/11 06:00:11;;;;;;;2.60;2.40;;;16.40;99.90;;;;;;5070406;28;20553;-67
2021/07/11 06:02:37;;;;;;;4.77;2.80;;;16.40;99.90;;;;;;5070446;28;20810;-68
2021/07/11 06:05:05;;;;;;;3.30;2.97;;;16.50;99.90;;;;;;5070767;28;20487;-67
2021/07/11 06:07:32;;;;;;;3.67;2.43;;;16.50;99.90;;;;;;5070394;28;20498;-66
2021/07/11 06:09:59;;;;;;;3.13;2.77;;;16.60;99.90;;;;;;5070216;28;20458;-66
2021/07/11 06:12:26;;;;;;;2.70;2.50;;;16.60;99.90;;;;;;5070215;28;20466;-67
2021/07/11 06:14:54;;;;;;;3.00;2.17;;;16.60;99.90;;;;;;5070594;28;20892;-66
2021/07/11 06:17:23;;;;;;;3.23;2.80;;;16.60;99.90;;;;;;5070368;28;20475;-66
2021/07/11 06:19:49;;;;;;;2.60;2.40;;;16.70;99.90;;;;;;5069688;28;20531;-66
2021/07/11 06:22:16;;;;;;;3.40;2.37;;;16.70;99.90;;;;;;5070406;28;21202;-67
2021/07/11 06:24:43;;;;;;;3.00;2.70;;;16.70;99.90;;;;;;5069794;28;20486;-67
2021/07/11 06:27:09;;;;;;;3.27;2.67;;;16.70;99.90;;;;;;5070318;28;20493;-66
2021/07/11 06:29:36;;;;;;;3.03;2.73;;;16.80;99.90;;;;;;5069427;28;20466;-67
2021/07/11 06:32:03;;;;;;;2.80;2.27;;;16.80;99.90;;;;;;5069325;28;20473;-66
2021/07/11 06:34:31;;;;;;;2.37;2.17;;;16.80;99.90;;;;;;5069923;28;20474;-67
2021/07/11 06:36:58;;;;;;;2.80;2.33;;;16.80;99.90;;;;;;5069771;28;20463;-66
2021/07/11 06:39:25;;;;;;;3.77;2.73;;;16.90;99.90;;;;;;5069344;28;20842;-66
2021/07/11 06:41:51;;;;;;;3.27;2.30;;;16.90;99.90;;;;;;5069646;28;20622;-66
2021/07/11 06:44:18;;;;;;;3.13;2.37;;;16.90;99.90;;;;;;5069471;28;20490;-66
2021/07/11 06:46:45;;;;;;;6.00;2.40;;;16.90;99.90;;;;;;5069307;28;20462;-67
2021/07/11 06:49:12;;;;;;;3.20;2.77;;;16.90;99.90;;;;;;5069407;28;20467;-67
2021/07/11 06:51:40;;;;;;;3.23;2.53;;;16.90;99.90;;;;;;5069437;28;20774;-67
2021/07/11 06:54:06;;;;;;;3.43;2.00;;;16.90;99.90;;;;;;5069054;28;20483;-67
2021/07/11 06:56:33;;;;;;;3.30;2.40;;;17.00;99.90;;;;;;5069017;28;20837;-66
2021/07/11 06:59:00;;;;;;;3.13;2.70;;;17.00;99.90;;;;;;5069347;28;20466;-67
2021/07/11 07:01:27;;;;;;;2.67;2.47;;;17.10;99.90;;;;;;5068319;28;20467;-66
2021/07/11 07:03:54;;;;;;;3.87;2.20;;;17.10;99.90;;;;;;5069395;28;21043;-67
2021/07/11 07:06:22;;;;;;;2.47;2.10;;;17.10;99.90;;;;;;5069681;28;20447;-65
2021/07/11 07:08:50;;;;;;;2.60;2.40;;;17.20;99.90;;;;;;5069124;28;20511;-67
2021/07/11 07:11:16;;;;;;;2.77;2.20;;;17.20;99.90;;;;;;5068339;28;20469;-66
2021/07/11 07:13:43;;;;;;;2.57;2.30;;;17.30;99.90;;;;;;5068919;28;20489;-67
2021/07/11 07:16:10;;;;;;;3.90;2.70;;;17.40;99.90;;;;;;5069176;28;20467;-67
2021/07/11 07:18:36;;;;;;;3.20;2.40;;;17.40;99.90;;;;;;5068650;28;20497;-66
2021/07/11 07:21:03;;;;;;;3.90;2.30;;;17.50;99.90;;;;;;5068208;28;20462;-67
2021/07/11 07:23:30;;;;;;;2.57;2.37;;;17.60;99.90;;;;;;5068676;28;20903;-67
2021/07/11 07:25:58;;;;;;;2.53;2.33;;;17.60;99.90;;;;;;5055386;28;20468;-66
2021/07/11 07:28:25;;;;;;;3.00;2.30;;;17.70;99.90;;;;;;5048948;28;20471;-67
2021/07/11 07:30:51;;;;;;;2.30;2.10;;;17.70;99.90;;;;;;5047999;28;20965;-67
2021/07/11 07:33:18;;;;;;;2.60;2.40;;;17.70;99.90;;;;;;5048513;28;20464;-67
2021/07/11 07:35:45;;;;;;;2.07;1.70;;;17.70;99.90;;;;;;5048276;28;20463;-67
2021/07/11 07:38:12;;;;;;;2.77;2.47;;;17.70;99.90;;;;;;5048610;28;20958;-67
2021/07/11 07:40:38;;;;;;;2.57;2.37;;;17.70;99.90;;;;;;5047605;28;20474;-67
2021/07/11 07:43:07;;;;;;;2.30;2.10;;;17.60;99.90;;;;;;5048272;28;20538;-67
2021/07/11 07:45:34;;;;;;;2.67;2.40;;;17.60;99.90;;;;;;5048661;28;20566;-67
2021/07/11 07:48:01;;;;;;;2.47;2.27;;;17.70;99.90;;;;;;5048338;28;20475;-66
2021/07/11 07:50:28;;;;;;;3.70;2.40;;;17.70;99.90;;;;;;5047818;28;20700;-67
2021/07/11 07:52:54;;;;;;;3.07;2.17;;;17.70;99.90;;;;;;5048155;28;20831;-66
2021/07/11 07:55:21;;;;;;;2.90;2.17;;;17.70;99.90;;;;;;5048357;28;20585;-67
2021/07/11 07:57:48;;;;;;;2.40;2.20;;;17.80;99.90;;;;;;5048296;28;20467;-67
2021/07/11 08:00:17;;;;;;;2.83;2.63;;;17.90;99.90;;;;;;5046720;28;20551;-67
2021/07/11 08:02:44;;;;;;;2.90;2.60;;;18.00;99.90;;;;;;5047444;28;21017;-67
2021/07/11 08:05:12;;;;;;;2.30;2.10;;;18.10;99.90;;;;;;5047689;28;20493;-67
2021/07/11 08:07:39;;;;;;;2.60;2.40;;;18.20;99.90;;;;;;5048012;28;20470;-66
2021/07/11 08:10:08;;;;;;;2.13;1.93;;;18.30;99.90;;;;;;5047999;28;20490;-66
2021/07/11 08:12:35;;;;;;;2.17;1.97;;;18.20;99.90;;;;;;5050253;28;20994;-66
2021/07/11 08:15:01;;;;;;;2.93;2.50;;;18.40;99.90;;;;;;5048745;28;20485;-67
2021/07/11 08:17:29;;;;;;;2.50;2.10;;;18.40;99.90;;;;;;5047698;28;20470;-67
2021/07/11 08:19:56;;;;;;;1.90;1.80;;;18.50;99.90;;;;;;5047700;28;20490;-67
2021/07/11 08:22:23;;;;;;;2.57;2.37;;;18.50;99.90;;;;;;5048168;28;20533;-67
2021/07/11 08:24:49;;;;;;;3.10;2.27;;;18.50;99.90;;;;;;5048071;28;20518;-66
2021/07/11 08:27:16;;;;;;;3.20;2.57;;;18.50;99.90;;;;;;5048352;28;20468;-66
2021/07/11 08:29:43;;;;;;;2.37;1.93;;;18.50;99.90;;;;;;5046707;28;20962;-66
2021/07/11 08:32:10;;;;;;;2.90;2.20;;;18.50;99.90;;;;;;5049525;28;20478;-66
2021/07/11 08:34:38;;;;;;;2.50;2.30;;;18.40;99.90;;;;;;5052084;28;20475;-67
2021/07/11 08:37:05;;;;;;;2.30;2.10;;;18.40;99.90;;;;;;5052017;28;20498;-66
2021/07/11 08:39:31;;;;;;;2.37;2.17;;;18.30;99.90;;;;;;5051834;28;20829;-67
2021/07/11 08:41:59;;;;;;;2.23;2.10;;;18.30;99.90;;;;;;5051344;28;20463;-67
2021/07/11 08:44:27;;;;;;;2.70;2.50;;;18.30;99.90;;;;;;5052554;28;20992;-67
2021/07/11 08:46:54;;;;;;;2.70;2.30;;;18.20;99.90;;;;;;5061494;28;20834;-67
2021/07/11 08:49:22;;;;;;;3.83;1.87;;;18.10;99.90;;;;;;5061595;28;20459;-66
2021/07/11 08:51:57;;;;;;;2.33;2.13;;;18.10;99.90;;;;;;5061934;28;20508;-67
2021/07/11 08:54:24;;;;;;;2.33;2.00;;;18.10;99.90;;;;;;5057590;28;20548;-67
2021/07/11 08:56:56;;;;;;;3.63;2.17;;;18.10;99.90;;;;;;5053079;28;20946;-67
2021/07/11 08:59:22;;;;;;;2.40;2.10;;;18.10;99.90;;;;;;5054680;28;20463;-67
2021/07/11 09:01:49;;;;;;;4.53;2.17;;;18.10;99.90;;;;;;5050217;28;20521;-67
2021/07/11 09:04:16;;;;;;;2.83;2.27;;;18.00;99.90;;;;;;5061224;28;20491;-67
2021/07/11 09:06:46;;;;;;;3.20;2.30;;;18.00;99.90;;;;;;5052862;28;20462;-67
2021/07/11 09:09:23;;;;;;;3.23;2.17;;;18.10;99.90;;;;;;5058654;28;20834;-67
2021/07/11 09:11:53;;;;;;;2.60;2.40;;;18.10;99.90;;;;;;5059360;28;20543;-67
2021/07/11 09:14:22;;;;;;;2.13;2.00;;;18.20;99.90;;;;;;5052843;28;20533;-67
2021/07/11 09:16:49;;;;;;;3.70;2.23;;;18.30;99.90;;;;;;5057903;28;20459;-67
2021/07/11 09:19:21;;;;;;;3.40;2.40;;;18.30;99.90;;;;;;5049198;28;20451;-67
2021/07/11 09:21:56;;;;;;;1.90;1.80;;;18.40;99.90;;;;;;5059748;28;20468;-67
2021/07/11 09:24:25;;;;;;;2.03;1.87;;;18.40;99.90;;;;;;5057054;28;20491;-67
2021/07/11 09:26:52;;;;;;;2.50;2.30;;;18.50;99.90;;;;;;5060761;28;20450;-67
2021/07/11 09:29:29;;;;;;;1.93;1.83;;;18.60;99.90;;;;;;5062530;28;20481;-67
2021/07/11 09:31:56;;;;;;;2.40;2.20;;;18.70;99.90;;;;;;5055957;28;20883;-67
2021/07/11 09:34:24;;;;;;;2.00;1.83;;;18.80;99.90;;;;;;5061915;28;20900;-66
2021/07/11 09:37:08;;;;;;;2.70;2.50;;;18.80;99.90;;;;;;5059869;28;20456;-65
2021/07/11 09:39:37;;;;;;;2.20;2.00;;;18.90;99.90;;;;;;5054864;28;20542;-66
2021/07/11 09:42:05;;;;;;;2.90;1.97;;;18.90;99.90;;;;;;5064241;28;20459;-66
2021/07/11 09:44:39;;;;;;;2.23;2.00;;;19.00;99.90;;;;;;5059110;28;20479;-66
2021/07/11 09:47:16;;;;;;;2.57;2.10;;;19.00;99.90;;;;;;5051554;28;20969;-67
2021/07/11 09:49:43;;;;;;;2.53;2.33;;;19.00;99.90;;;;;;5059692;28;20466;-66
2021/07/11 09:52:09;;;;;;;2.20;2.00;;;19.00;99.90;;;;;;5061736;28;21038;-67
2021/07/11 09:54:37;;;;;;;2.30;1.90;;;19.10;99.90;;;;;;5060065;28;20478;-66
2021/07/11 09:57:09;;;;;;;2.20;2.00;;;19.00;99.90;;;;;;5048315;28;20986;-66
2021/07/11 09:59:36;;;;;;;2.50;2.27;;;19.10;99.90;;;;;;5048159;28;20487;-66
2021/07/11 10:02:04;;;;;;;2.97;2.10;;;19.10;99.90;;;;;;5049365;28;20491;-66
2021/07/11 10:04:31;;;;;;;2.67;2.47;;;19.10;99.90;;;;;;5047461;28;20869;-65
2021/07/11 10:06:59;;;;;;;2.47;2.20;;;19.20;99.90;;;;;;5048716;28;20459;-68
2021/07/11 10:09:26;;;;;;;2.53;1.90;;;19.30;99.90;;;;;;5048562;28;20459;-68
2021/07/11 10:11:55;;;;;;;2.00;1.80;;;19.20;99.90;;;;;;5048764;28;21046;-67
2021/07/11 10:14:22;;;;;;;2.30;2.10;;;19.30;99.90;;;;;;5048159;28;20972;-67
2021/07/11 10:16:50;;;;;;;2.43;2.10;;;19.30;99.90;;;;;;5048695;28;20467;-68
2021/07/11 10:19:18;;;;;;;2.47;2.20;;;19.30;99.90;;;;;;5045774;28;20451;-69
2021/07/11 10:21:47;;;;;;;2.40;2.20;;;19.40;99.90;;;;;;5047698;28;20950;-68
2021/07/11 10:24:21;;;;;;;2.40;2.20;;;19.40;99.90;;;;;;5057551;28;20483;-69
2021/07/11 10:26:48;;;;;;;2.17;1.97;;;19.40;99.90;;;;;;5047541;28;20590;-68
2021/07/11 10:29:19;;;;;;;3.30;2.20;;;19.40;99.90;;;;;;5061448;28;20455;-68
2021/07/11 10:31:48;;;;;;;2.40;2.17;;;19.40;99.90;;;;;;5059039;28;20499;-67
2021/07/11 10:34:27;;;;;;;2.23;2.03;;;19.40;99.90;;;;;;5066823;28;20478;-68
2021/07/11 10:36:54;;;;;;;2.33;2.13;;;19.30;99.90;;;;;;5066671;28;20949;-68
2021/07/11 10:39:21;;;;;;;2.10;1.90;;;19.30;99.90;;;;;;5054994;28;20460;-67
2021/07/11 10:41:53;;;;;;;2.37;1.80;;;19.20;99.90;;;;;;5046104;28;20970;-68
2021/07/11 10:44:23;;;;;;;2.50;2.10;;;19.10;99.90;;;;;;5046331;28;20479;-69
2021/07/11 10:46:55;;;;;;;2.73;2.03;;;19.10;99.90;;;;;;5056608;28;20549;-69
2021/07/11 10:49:24;;;;;;;2.70;2.50;;;19.00;99.90;;;;;;5064119;28;20461;-68
2021/07/11 10:51:57;;;;;;;2.57;2.20;;;18.90;99.90;;;;;;5057428;28;20461;-67
2021/07/11 10:54:28;;;;;;;3.50;2.00;;;18.90;99.90;;;;;;5049650;28;21202;-67
2021/07/11 10:56:56;;;;;;;3.33;2.20;;;18.90;99.90;;;;;;5055873;28;20454;-68
2021/07/11 10:59:28;;;;;;;4.53;2.20;;;18.90;99.90;;;;;;5061203;28;20946;-68
2021/07/11 11:01:56;;;;;;;2.37;2.17;;;18.90;99.90;;;;;;5058107;28;20493;-68
2021/07/11 11:04:22;;;;;;;2.43;2.23;;;18.90;99.90;;;;;;5056262;28;20515;-67
2021/07/11 11:06:50;;;;;;;2.23;2.03;;;18.90;99.90;;;;;;5042016;28;20837;-68
2021/07/11 11:09:37;;;;;;;2.43;2.23;;;18.80;99.90;;;;;;5044554;28;20801;-68
2021/07/11 11:12:18;;;;;;;2.50;2.30;;;18.80;99.90;;;;;;5045878;28;20973;-67
2021/07/11 11:14:54;;;;;;;2.37;2.17;;;18.80;99.90;;;;;;5045472;28;20497;-68
2021/07/11 11:17:32;;;;;;;2.50;2.30;;;18.70;99.90;;;;;;5046281;28;20459;-68
2021/07/11 11:20:00;;;;;;;2.77;2.17;;;18.70;99.90;;;;;;5045430;28;20841;-67
2021/07/11 11:22:27;;;;;;;3.07;2.30;;;18.70;99.90;;;;;;5046787;28;20800;-68
2021/07/11 11:24:54;;;;;;;2.60;2.40;;;18.70;99.90;;;;;;5045904;28;20491;-67
2021/07/11 11:27:35;;;;;;;2.47;2.07;;;18.60;99.90;;;;;;5045741;28;20464;-67
2021/07/11 11:30:13;;;;;;;2.20;2.00;;;18.60;99.90;;;;;;5045912;28;20827;-67
2021/07/11 11:32:40;;;;;;;2.40;2.20;;;18.50;99.90;;;;;;5045819;28;20478;-67
2021/07/11 11:35:08;;;;;;;2.40;2.20;;;18.50;99.90;;;;;;5046145;28;20937;-67
2021/07/11 11:37:38;;;;;;;2.90;2.70;;;18.50;99.90;;;;;;5046280;28;20466;-66
2021/07/11 11:40:09;;;;;;;2.20;1.97;;;18.60;99.90;;;;;;5045442;28;20466;-67
2021/07/11 11:42:36;;;;;;;2.17;1.97;;;18.70;99.90;;;;;;5047114;28;20474;-67
2021/07/11 11:45:05;;;;;;;2.50;2.20;;;18.80;99.90;;;;;;5045646;28;20494;-67
2021/07/11 11:47:34;;;;;;;2.50;2.30;;;18.90;99.90;;;;;;5045970;28;20474;-67
2021/07/11 11:50:14;;;;;;;3.93;2.33;;;19.00;99.90;;;;;;5048615;28;20463;-68
2021/07/11 11:52:41;;;;;;;2.17;1.80;;;19.10;99.90;;;;;;5064456;28;20465;-68
2021/07/11 11:55:09;;;;;;;2.30;2.10;;;19.10;99.90;;;;;;5052034;28;20561;-66
2021/07/11 12:00:05;;;;;;;3.47;2.33;;;19.10;99.90;;;;;;5040337;28;20455;-72
2021/07/11 12:02:34;;;;;;;3.33;2.33;;;19.10;99.90;;;;;;5032052;28;20471;-74
2021/07/11 12:05:09;;;;;;;2.53;2.33;;;19.10;99.90;;;;;;5039945;28;20511;-74
2021/07/11 12:07:36;;;;;;;2.77;2.53;;;19.10;99.90;;;;;;5052107;28;20496;-73
2021/07/11 12:10:03;;;;;;;2.60;2.40;;;19.10;99.90;;;;;;5048436;28;20451;-75
2021/07/11 12:12:29;;;;;;;2.30;2.10;;;19.20;99.90;;;;;;5032193;28;20464;-73
2021/07/11 12:14:56;;;;;;;2.33;2.13;;;19.30;99.90;;;;;;5034610;28;20476;-74
2021/07/11 12:17:23;;;;;;;2.70;2.30;;;19.40;99.90;;;;;;5040552;28;20497;-75
2021/07/11 12:19:54;;;;;;;2.47;2.27;;;19.50;99.90;;;;;;5045227;28;20459;-73
2021/07/11 12:22:22;;;;;;;2.70;2.50;;;19.70;99.90;;;;;;5042782;28;20876;-74
2021/07/11 12:25:03;;;;;;;3.00;2.63;;;19.80;99.90;;;;;;5037808;28;20845;-73
2021/07/11 12:27:33;;;;;;;2.23;2.03;;;20.00;99.90;;;;;;5051905;28;20954;-74
2021/07/11 12:30:07;;;;;;;3.07;2.70;;;20.10;99.90;;;;;;5050683;28;20490;-72
2021/07/11 12:32:43;;;;;;;2.63;2.30;;;20.30;99.90;;;;;;5052071;28;20466;-74
2021/07/11 12:35:12;;;;;;;2.53;2.33;;;20.60;99.90;;;;;;5051830;28;20501;-73
2021/07/11 12:37:49;;;;;;;2.30;1.90;;;20.80;99.90;;;;;;5036115;28;20460;-74
2021/07/11 12:40:17;;;;;;;2.90;2.13;;;20.80;99.90;;;;;;5049672;28;20455;-74
2021/07/11 12:42:44;;;;;;;2.60;2.40;;;20.80;99.90;;;;;;5042341;28;20654;-74
2021/07/11 12:45:18;;;;;;;2.43;2.23;;;20.80;99.90;;;;;;5052049;28;20475;-73
2021/07/11 12:47:52;;;;;;;2.50;2.30;;;20.80;99.90;;;;;;5051115;28;20462;-73
2021/07/11 12:50:32;;;;;;;2.47;2.17;;;20.60;99.90;;;;;;5044060;28;20490;-74
2021/07/11 12:52:59;;;;;;;2.60;1.97;;;20.50;99.90;;;;;;5040836;28;20463;-73
2021/07/11 12:55:25;;;;;;;6.33;2.60;;;20.40;99.90;;;;;;5033766;28;20483;-73
2021/07/11 12:57:52;;;;;;;2.70;2.50;;;20.30;99.90;;;;;;5043721;28;20878;-74